createdAt,value
2023-03-05T15:22:57.230Z,41.72
2023-03-05T15:23:59.849Z,38.75
2023-03-05T15:25:02.368Z,39.78
2023-03-05T15:26:07.443Z,38.97
2023-03-05T15:27:10.051Z,38.42
2023-03-05T15:28:12.572Z,37.83
2023-03-05T15:29:15.049Z,37.67
2023-03-05T15:30:22.530Z,37.63
2023-03-05T15:31:25.055Z,37.70
2023-03-05T15:32:28.271Z,36.38
2023-03-05T15:33:31.723Z,37.50
2023-03-05T15:34:34.704Z,36.72
2023-03-05T15:35:38.048Z,37.40
2023-03-05T15:36:40.666Z,37.10
2023-03-05T15:37:43.308Z,37.97
2023-03-05T15:38:48.427Z,36.30
2023-03-05T15:39:50.983Z,36.35
2023-03-05T15:40:53.540Z,35.88
2023-03-05T15:41:56.702Z,35.83
2023-03-05T15:43:00.454Z,35.60
2023-03-05T15:44:03.105Z,35.67
2023-03-05T15:45:06.897Z,35.60
2023-03-05T15:46:09.463Z,36.53
2023-03-05T15:47:12.046Z,36.20
2023-03-05T15:48:14.581Z,35.05
2023-03-05T15:49:17.371Z,35.53
2023-03-05T15:50:21.768Z,33.90
2023-03-05T15:51:24.293Z,36.13
2023-03-05T15:52:26.879Z,33.33
2023-03-05T15:53:29.366Z,36.47
2023-03-05T15:54:35.463Z,36.28
2023-03-05T15:55:38.750Z,34.33
2023-03-05T15:56:41.545Z,35.08
2023-03-05T15:57:46.063Z,33.70
2023-03-05T15:58:49.663Z,34.08
2023-03-05T15:59:53.604Z,33.75
2023-03-05T16:00:56.049Z,32.75
2023-03-05T16:01:58.632Z,33.63
2023-03-05T16:03:01.201Z,34.35
2023-03-05T16:04:04.035Z,34.45
2023-03-05T16:05:08.213Z,32.50
2023-03-05T16:06:12.359Z,32.20
2023-03-05T16:07:15.685Z,31.90
2023-03-05T16:08:18.186Z,33.03
2023-03-05T16:09:22.126Z,32.60
2023-03-05T16:10:29.376Z,32.83
2023-03-05T16:11:35.703Z,30.95
2023-03-05T16:12:39.388Z,32.92
2023-03-05T16:13:42.290Z,32.03
2023-03-05T16:14:45.943Z,31.80
2023-03-05T16:15:48.853Z,29.75
2023-03-05T16:16:55.352Z,30.63
2023-03-05T16:18:00.696Z,30.88
2023-03-05T16:19:07.970Z,31.40
2023-03-05T16:20:12.682Z,31.85
2023-03-05T16:21:15.299Z,31.13
2023-03-05T16:22:17.820Z,30.38
2023-03-05T16:23:20.417Z,31.20
2023-03-05T16:24:22.909Z,32.40
2023-03-05T16:25:28.075Z,29.48
2023-03-05T16:26:30.978Z,32.65
2023-03-05T16:27:36.674Z,30.70
2023-03-05T16:28:39.173Z,29.73
2023-03-05T16:29:41.695Z,29.08
2023-03-05T16:30:44.229Z,29.17
2023-03-05T16:31:46.925Z,29.90
2023-03-05T16:32:49.901Z,28.38
2023-03-05T16:33:53.309Z,28.77
2023-03-05T16:34:57.155Z,27.50
2023-03-05T16:36:21.850Z,27.80
2023-03-05T16:37:25.139Z,28.00
2023-03-05T16:38:27.614Z,28.60
2023-03-05T16:39:30.218Z,29.23
2023-03-05T16:41:02.939Z,28.17
2023-03-05T16:41:59.171Z,28.13
2023-03-05T16:43:03.090Z,29.10
2023-03-05T16:44:05.779Z,28.75
2023-03-05T16:45:10.316Z,28.67
2023-03-05T16:46:13.911Z,27.55
2023-03-05T16:47:16.494Z,29.23
2023-03-05T16:48:19.019Z,27.33
2023-03-05T16:49:21.757Z,27.77
2023-03-05T16:50:24.791Z,27.88
2023-03-05T16:51:27.343Z,27.98
2023-03-05T16:52:29.922Z,27.23
2023-03-05T16:53:32.918Z,27.63
2023-03-05T16:54:35.412Z,27.75
2023-03-05T16:55:40.540Z,26.27
2023-03-05T16:56:43.076Z,25.95
2023-03-05T16:57:45.610Z,27.45
2023-03-05T16:58:49.219Z,27.60
2023-03-05T16:59:53.343Z,27.35
2023-03-05T17:00:56.233Z,27.67
2023-03-05T17:01:58.698Z,27.58
2023-03-05T17:03:01.218Z,27.63
2023-03-05T17:04:03.942Z,25.77
2023-03-05T17:05:06.980Z,25.20
2023-03-05T17:06:14.750Z,26.65
2023-03-05T17:07:17.521Z,27.05
2023-03-05T17:08:20.375Z,26.60
2023-03-05T17:09:23.250Z,26.30
2023-03-05T17:10:25.893Z,26.67
2023-03-05T17:11:31.103Z,26.63
2023-03-05T17:12:33.642Z,26.88
2023-03-05T17:13:36.766Z,24.88
2023-03-05T17:14:39.276Z,25.55
2023-03-05T17:17:04.566Z,26.58
2023-03-05T17:18:07.190Z,25.70
2023-03-05T17:19:09.784Z,25.85
2023-03-05T17:20:13.184Z,26.45
2023-03-05T17:21:16.173Z,26.00
2023-03-05T17:22:18.692Z,25.02
2023-03-05T17:23:21.253Z,25.00
2023-03-05T17:24:23.774Z,24.23
2023-03-05T17:25:26.272Z,25.15
2023-03-05T17:26:31.551Z,25.65
2023-03-05T17:27:36.126Z,25.35
2023-03-05T17:28:39.681Z,25.88
2023-03-05T17:29:42.222Z,23.90
2023-03-05T17:30:44.918Z,23.42
2023-03-05T17:31:49.722Z,24.48
2023-03-05T17:32:52.990Z,23.42
2023-03-05T17:33:55.717Z,24.35
2023-03-05T17:34:58.253Z,23.70
2023-03-05T17:36:01.415Z,24.55
2023-03-05T17:37:05.285Z,23.27
2023-03-05T17:38:08.169Z,23.50
2023-03-05T17:39:10.673Z,23.92
2023-03-05T17:40:14.564Z,24.30
2023-03-05T17:41:18.198Z,23.90
2023-03-05T17:42:23.396Z,23.77
2023-03-05T17:43:27.901Z,25.05
2023-03-05T17:44:30.893Z,23.85
2023-03-05T17:45:33.408Z,23.42
2023-03-05T17:46:35.950Z,24.30
2023-03-05T17:47:38.635Z,22.80
2023-03-05T17:48:41.344Z,22.80
2023-03-05T17:49:43.854Z,22.67
2023-03-05T17:50:46.574Z,24.05
2023-03-05T17:51:49.093Z,23.35
2023-03-05T17:52:51.599Z,22.75
2023-03-05T17:53:54.517Z,24.58
2023-03-05T17:54:58.373Z,23.02
2023-03-05T17:56:02.020Z,23.67
2023-03-05T17:57:04.729Z,22.63
2023-03-05T17:58:10.329Z,23.83
2023-03-05T17:59:14.704Z,21.48
2023-03-05T18:00:19.864Z,21.85
2023-03-05T18:01:24.495Z,22.33
2023-03-05T18:02:27.343Z,22.48
2023-03-05T18:03:29.883Z,21.95
2023-03-05T18:04:32.411Z,22.25
2023-03-05T18:05:35.160Z,22.30
2023-03-05T18:06:37.698Z,21.45
2023-03-05T18:07:40.249Z,22.10
2023-03-05T18:08:42.745Z,21.38
2023-03-05T18:09:45.341Z,21.08
2023-03-05T18:10:47.935Z,21.58
2023-03-05T18:11:50.392Z,21.42
2023-03-05T18:12:54.068Z,21.92
2023-03-05T18:13:59.210Z,21.23
2023-03-05T18:15:01.850Z,20.77
2023-03-05T18:16:04.752Z,20.23
2023-03-05T18:17:07.297Z,20.75
2023-03-05T18:18:09.824Z,20.27
2023-03-05T18:19:12.346Z,21.65
2023-03-05T18:20:27.098Z,21.23
2023-03-05T18:21:29.606Z,19.38
2023-03-05T18:22:32.146Z,20.80
2023-03-05T18:23:34.700Z,21.10
2023-03-05T18:24:37.204Z,19.30
2023-03-05T18:25:40.086Z,20.92
2023-03-05T18:26:42.580Z,21.45
2023-03-05T18:27:45.147Z,20.70
2023-03-05T18:28:47.643Z,20.40
2023-03-05T18:29:52.739Z,20.23
2023-03-05T18:30:55.426Z,20.50
2023-03-05T18:31:57.936Z,20.00
2023-03-05T18:33:00.733Z,18.98
2023-03-05T18:34:03.342Z,19.08
2023-03-05T18:35:06.823Z,19.15
2023-03-05T18:36:10.956Z,19.77
2023-03-05T18:37:13.576Z,20.17
2023-03-05T18:38:16.089Z,18.73
2023-03-05T18:39:18.763Z,19.42
2023-03-05T18:40:23.715Z,18.70
2023-03-05T18:41:28.176Z,19.42
2023-03-05T18:42:30.875Z,19.20
2023-03-05T18:43:34.376Z,19.52
2023-03-05T18:44:36.996Z,19.15
2023-03-05T18:45:42.164Z,18.60
2023-03-05T18:46:44.770Z,18.88
2023-03-05T18:47:47.587Z,18.15
2023-03-05T18:48:50.171Z,18.00
2023-03-05T18:49:52.742Z,18.17
2023-03-05T18:50:55.298Z,18.23
2023-03-05T18:51:57.802Z,17.83
2023-03-05T18:53:00.394Z,19.27
2023-03-05T18:54:03.205Z,18.08
2023-03-05T18:55:06.743Z,17.08
2023-03-05T18:56:09.743Z,17.50
2023-03-05T18:57:12.228Z,17.58
2023-03-05T18:58:14.687Z,17.83
2023-03-05T18:59:17.275Z,17.45
2023-03-05T19:00:23.115Z,16.70
2023-03-05T19:01:28.370Z,17.17
2023-03-05T19:02:30.912Z,16.58
2023-03-05T19:03:33.461Z,16.25
2023-03-05T19:04:35.988Z,16.17
2023-03-05T19:05:38.856Z,16.55
2023-03-05T19:06:41.425Z,16.05
2023-03-05T19:07:44.085Z,16.63
2023-03-05T19:08:47.237Z,16.77
2023-03-05T19:09:49.837Z,15.82
2023-03-05T19:10:52.314Z,15.52
2023-03-05T19:11:54.854Z,16.50
2023-03-05T19:12:57.809Z,16.13
2023-03-05T19:14:00.323Z,15.93
2023-03-05T19:15:04.205Z,15.48
2023-03-05T19:16:08.714Z,15.95
2023-03-05T19:17:13.839Z,15.73
2023-03-05T19:18:16.435Z,14.90
2023-03-05T19:19:19.217Z,14.60
2023-03-05T19:20:21.749Z,15.73
2023-03-05T19:21:24.434Z,14.68
2023-03-05T19:22:27.379Z,15.60
2023-03-05T19:23:29.876Z,14.45
2023-03-05T19:24:32.441Z,14.07
2023-03-05T19:25:36.527Z,14.50
2023-03-05T19:26:39.260Z,14.60
2023-03-05T19:27:41.871Z,14.55
2023-03-05T19:28:44.375Z,14.85
2023-03-05T19:29:46.908Z,15.07
2023-03-05T19:30:49.983Z,13.80
2023-03-05T19:31:54.100Z,15.13
2023-03-05T19:32:59.221Z,15.07
2023-03-05T19:34:02.007Z,13.48
2023-03-05T19:35:05.420Z,14.48
2023-03-05T19:36:09.681Z,14.13
2023-03-05T19:37:12.463Z,14.68
2023-03-05T19:38:15.061Z,13.13
2023-03-05T19:39:18.615Z,14.10
2023-03-05T19:40:22.473Z,13.70
2023-03-05T19:41:25.267Z,13.48
2023-03-05T19:42:27.783Z,13.50
2023-03-05T19:43:30.327Z,13.43
2023-03-05T19:44:33.073Z,13.25
2023-03-05T19:45:35.654Z,13.27
2023-03-05T19:46:38.198Z,13.00
2023-03-05T19:47:40.697Z,12.77
2023-03-05T19:48:45.860Z,13.20
2023-03-05T19:49:48.362Z,12.38
2023-03-05T19:50:50.896Z,13.02
2023-03-05T19:51:53.527Z,13.05
2023-03-05T19:52:56.116Z,13.43
2023-03-05T19:53:58.709Z,12.43
2023-03-05T19:55:01.214Z,11.73
2023-03-05T19:56:04.328Z,12.93
2023-03-05T19:57:06.931Z,12.30
2023-03-05T19:58:09.421Z,12.45
2023-03-05T19:59:12.180Z,12.32
2023-03-05T20:00:15.363Z,11.35
2023-03-05T20:01:19.704Z,11.15
2023-03-05T20:02:22.269Z,11.60
2023-03-05T20:03:24.841Z,12.65
2023-03-05T20:04:29.949Z,12.20
2023-03-05T20:05:32.459Z,12.23
2023-03-05T20:06:35.024Z,10.77
2023-03-05T20:07:37.522Z,11.07
2023-03-05T20:08:40.324Z,11.75
2023-03-05T20:09:42.942Z,12.30
2023-03-05T20:10:45.500Z,12.02
2023-03-05T20:11:48.104Z,10.98
2023-03-05T20:12:50.699Z,11.25
2023-03-05T20:13:53.239Z,11.07
2023-03-05T20:14:55.983Z,11.02
2023-03-05T20:15:58.790Z,10.93
2023-03-05T20:17:01.389Z,11.13
2023-03-05T20:18:04.287Z,10.25
2023-03-05T20:19:08.489Z,11.07
2023-03-05T20:20:18.070Z,10.45
2023-03-05T20:21:22.093Z,10.57
2023-03-05T20:22:24.798Z,10.10
2023-03-05T20:23:28.246Z,10.35
2023-03-05T20:24:30.942Z,10.50
2023-03-05T20:25:33.488Z,10.00
2023-03-05T20:26:37.707Z,10.60
2023-03-05T20:27:40.274Z,10.20
2023-03-05T20:28:42.822Z,9.65
2023-03-05T20:29:45.303Z,9.93
2023-03-05T20:30:53.489Z,9.82
2023-03-05T20:31:55.986Z,9.93
2023-03-05T20:32:58.508Z,10.18
2023-03-05T20:34:01.189Z,9.20
2023-03-05T20:35:03.904Z,10.48
2023-03-05T20:36:09.615Z,10.40
2023-03-05T20:37:12.169Z,10.35
2023-03-05T20:38:15.442Z,9.63
2023-03-05T20:39:17.930Z,9.77
2023-03-05T20:40:20.473Z,9.68
2023-03-05T20:41:23.024Z,10.52
2023-03-05T20:42:25.513Z,9.75
2023-03-05T20:43:30.305Z,9.02
2023-03-05T20:44:34.459Z,9.77
2023-03-05T20:45:37.665Z,10.20
2023-03-05T20:46:40.912Z,9.15
2023-03-05T20:47:43.763Z,10.13
2023-03-05T20:48:47.734Z,9.27
2023-03-05T20:49:54.491Z,8.85
2023-03-05T20:50:57.633Z,9.52
2023-03-05T20:52:02.780Z,9.85
2023-03-05T20:53:05.298Z,9.05
2023-03-05T20:54:11.163Z,8.55
2023-03-05T20:55:13.661Z,8.77
2023-03-05T20:56:16.248Z,9.98
2023-03-05T20:57:18.802Z,9.20
2023-03-05T20:58:21.283Z,9.15
2023-03-05T20:59:23.964Z,9.13
2023-03-05T21:00:26.730Z,9.18
2023-03-05T21:01:30.551Z,8.35
2023-03-05T21:02:33.044Z,8.20
2023-03-05T21:03:35.620Z,8.88
2023-03-05T21:04:38.155Z,8.68
2023-03-05T21:05:40.813Z,8.80
2023-03-05T21:06:43.320Z,8.25
2023-03-05T21:07:48.869Z,8.70
2023-03-05T21:08:51.454Z,8.55
2023-03-05T21:09:53.978Z,8.77
2023-03-05T21:10:56.497Z,8.48
2023-03-05T21:11:59.219Z,8.82
2023-03-05T21:13:01.708Z,8.90
2023-03-05T21:14:04.270Z,8.90
2023-03-05T21:15:11.822Z,8.25
2023-03-05T21:16:17.538Z,8.88
2023-03-05T21:17:20.116Z,8.73
2023-03-05T21:18:22.670Z,8.35
2023-03-05T21:19:25.635Z,8.75
2023-03-05T21:20:30.442Z,8.05
2023-03-05T21:21:33.175Z,7.88
2023-03-05T21:22:35.908Z,8.43
2023-03-05T21:23:41.050Z,8.55
2023-03-05T21:24:43.581Z,7.95
2023-03-05T21:25:46.697Z,7.93
2023-03-05T21:26:49.200Z,7.30
2023-03-05T21:27:55.847Z,8.02
2023-03-05T21:28:58.349Z,7.85
2023-03-05T21:30:01.053Z,8.63
2023-03-05T21:31:07.813Z,7.70
2023-03-05T21:32:10.415Z,7.75
2023-03-05T21:33:14.763Z,7.45
2023-03-05T21:34:17.472Z,8.02
2023-03-05T21:35:22.111Z,7.32
2023-03-05T21:36:24.807Z,6.88
2023-03-05T21:37:27.546Z,6.95
2023-03-05T21:38:30.140Z,7.25
2023-03-05T21:39:35.386Z,7.03
2023-03-05T21:40:41.546Z,6.78
2023-03-05T21:41:44.089Z,6.85
2023-03-05T21:42:47.468Z,6.72
2023-03-05T21:43:49.977Z,6.45
2023-03-05T21:44:54.022Z,6.93
2023-03-05T21:45:57.862Z,6.28
2023-03-05T21:47:00.400Z,6.38
2023-03-05T21:48:03.015Z,6.75
2023-03-05T21:49:05.526Z,5.90
2023-03-05T21:50:11.244Z,6.50
2023-03-05T21:51:17.424Z,5.95
2023-03-05T21:52:20.083Z,5.95
2023-03-05T21:53:23.232Z,5.80
2023-03-05T21:54:27.380Z,6.10
2023-03-05T21:55:33.180Z,4.75
2023-03-05T21:56:35.851Z,5.43
2023-03-05T21:57:38.423Z,5.60
2023-03-05T21:58:40.894Z,5.15
2023-03-05T21:59:43.435Z,5.25
2023-03-05T22:00:45.949Z,5.50
2023-03-05T22:01:48.474Z,5.68
2023-03-05T22:02:51.198Z,5.85
2023-03-05T22:03:53.720Z,5.10
2023-03-05T22:04:56.241Z,5.63
2023-03-05T22:05:58.825Z,4.88
2023-03-05T22:07:01.314Z,5.40
2023-03-05T22:08:04.708Z,5.18
2023-03-05T22:09:07.215Z,5.68
2023-03-05T22:10:13.188Z,5.18
2023-03-05T22:11:19.028Z,5.22
2023-03-05T22:12:22.423Z,5.03
2023-03-05T22:13:25.071Z,5.13
2023-03-05T22:14:27.731Z,5.05
2023-03-05T22:15:30.489Z,5.47
2023-03-05T22:16:33.006Z,4.90
2023-03-05T22:17:35.522Z,5.05
2023-03-05T22:18:38.109Z,5.00
2023-03-05T22:19:40.590Z,4.80
2023-03-05T22:20:43.895Z,5.10
2023-03-05T22:21:46.526Z,4.75
2023-03-05T22:22:49.012Z,5.65
2023-03-05T22:23:51.478Z,5.10
2023-03-05T22:24:53.952Z,5.38
2023-03-05T22:25:57.373Z,5.45
2023-03-05T22:27:02.509Z,5.50
2023-03-05T22:28:05.605Z,4.43
2023-03-05T22:29:08.777Z,5.60
2023-03-05T22:30:13.081Z,4.95
2023-03-05T22:31:20.469Z,5.55
2023-03-05T22:32:23.087Z,5.40
2023-03-05T22:33:26.278Z,5.50
2023-03-05T22:34:28.918Z,5.10
2023-03-05T22:35:31.447Z,5.10
2023-03-05T23:14:34.478Z,6.05
